< < Back
Terminal Aerodrome Forecast


Current Version              Previous Versions:   1  2  3  4  5  6  7  8  9  

Terminal Aerodrome Forecast

991
FTUS42 KFFC 262329
TAFPDK
TAF
KPDK 262329Z 2700/2724 32010KT P6SM BKN015
     FM270300 31007KT P6SM SCT040
     FM270600 32005KT P6SM FEW250
     FM271300 34005KT P6SM FEW010
     FM271500 34007KT P6SM SCT250=

Latest METAR

752
SAUS70 KWBC 271500 RRE
MTRPDK
METAR KPDK 271453Z 32008KT 7SM CLR 02/M03 A3038 RMK AO2 SLP305 T00171033
51030


USA.gov is the U.S. government's official web portal to all federal, state and local government web resources and services.